Time;durP1;ratioP1;P1;durP2;ratioP2;P2;SDS_P1;SDS_P2;PMS_P1;PMS_P2;Temp;Humidity;BMP_temperature;BMP_pressure;BME280_temperature;BME280_humidity;BME280_pressure;Samples;Min_cycle;Max_cycle;Signal;HPM_P1;HPM_P2
2023/01/11 00:01:20;;;;;;;17.38;11.88;;;8.50;99.90;;;;;;5080745;28;20037;-59
2023/01/11 00:03:46;;;;;;;16.58;11.57;;;9.10;99.90;;;;;;5079433;28;20048;-59
2023/01/11 00:06:12;;;;;;;17.48;11.35;;;8.30;99.90;;;;;;5063826;28;20055;-58
2023/01/11 00:08:38;;;;;;;16.65;11.25;;;8.20;99.90;;;;;;5077827;28;20041;-60
2023/01/11 00:11:04;;;;;;;18.00;11.73;;;8.10;99.90;;;;;;5081530;28;20066;-60
2023/01/11 00:13:30;;;;;;;15.63;11.20;;;9.10;99.90;;;;;;5078529;28;20121;-60
2023/01/11 00:15:56;;;;;;;18.30;12.65;;;8.10;99.90;;;;;;5081031;28;20117;-59
2023/01/11 00:18:22;;;;;;;20.08;12.00;;;8.20;99.90;;;;;;5080279;28;20146;-60
2023/01/11 00:20:48;;;;;;;18.90;12.63;;;8.20;99.90;;;;;;5079647;28;20041;-59
2023/01/11 00:23:13;;;;;;;20.98;12.20;;;9.20;99.90;;;;;;5063081;28;20558;-60
2023/01/11 00:25:39;;;;;;;17.98;12.32;;;9.30;99.90;;;;;;5078192;28;20564;-59
2023/01/11 00:28:05;;;;;;;15.73;11.55;;;8.30;99.90;;;;;;5080813;28;20037;-60
2023/01/11 00:30:32;;;;;;;17.27;12.10;;;8.70;99.90;;;;;;5078188;28;20573;-60
2023/01/11 00:32:59;;;;;;;18.23;11.60;;;9.30;99.90;;;;;;5062895;28;20588;-59
2023/01/11 00:35:25;;;;;;;18.33;12.23;;;9.00;99.90;;;;;;5079776;28;20036;-59
2023/01/11 00:37:53;;;;;;;19.45;12.68;;;9.40;99.90;;;;;;5079351;28;20044;-59
2023/01/11 00:40:19;;;;;;;17.50;11.85;;;8.60;99.90;;;;;;5080967;28;20044;-59
2023/01/11 00:48:14;;;;;;;17.83;12.10;;;8.30;99.90;;;;;;5079502;28;20097;-58
2023/01/11 00:50:40;;;;;;;18.45;12.23;;;8.40;99.90;;;;;;5079512;28;21237;-58
2023/01/11 00:53:07;;;;;;;16.90;11.50;;;9.40;99.90;;;;;;5080685;28;20047;-58
2023/01/11 00:55:33;;;;;;;16.05;10.82;;;9.50;99.90;;;;;;5093616;28;20055;-59
2023/01/11 00:57:59;;;;;;;16.63;11.00;;;8.50;99.90;;;;;;5101091;28;20521;-59
2023/01/11 01:00:27;;;;;;;15.52;10.20;;;8.40;99.90;;;;;;5098270;28;20043;-61
2023/01/11 01:02:53;;;;;;;15.38;9.77;;;8.70;99.90;;;;;;5100844;28;20055;-60
2023/01/11 01:05:19;;;;;;;14.30;9.88;;;9.60;99.90;;;;;;5099368;28;20453;-59
2023/01/11 01:07:45;;;;;;;13.32;8.48;;;9.40;99.90;;;;;;5099576;28;20036;-60
2023/01/11 01:10:13;;;;;;;13.32;7.95;;;8.90;99.90;;;;;;5100683;28;20403;-60
2023/01/11 01:15:23;;;;;;;11.65;7.30;;;9.70;99.90;;;;;;5100909;28;20499;-61
2023/01/11 01:17:53;;;;;;;11.70;6.60;;;9.80;99.90;;;;;;5098311;28;20040;-61
2023/01/11 01:20:21;;;;;;;11.57;6.95;;;8.80;99.90;;;;;;5100031;28;20048;-61
2023/01/11 01:22:47;;;;;;;10.75;6.50;;;9.30;99.90;;;;;;5099960;28;20064;-59
2023/01/11 01:25:14;;;;;;;9.90;5.55;;;8.70;99.90;;;;;;5097926;28;20048;-59
2023/01/11 01:27:39;;;;;;;10.15;5.95;;;9.00;99.90;;;;;;5100657;28;20527;-61
2023/01/11 01:30:06;;;;;;;10.00;4.78;;;9.80;99.90;;;;;;5097506;28;20046;-61
2023/01/11 01:32:31;;;;;;;9.27;5.15;;;9.30;99.90;;;;;;5100631;28;20055;-61
2023/01/11 01:34:57;;;;;;;8.77;4.80;;;9.40;99.90;;;;;;5097795;28;20048;-61
2023/01/11 01:37:22;;;;;;;10.02;5.47;;;9.90;99.90;;;;;;5100237;28;20040;-61
2023/01/11 01:39:48;;;;;;;9.20;4.72;;;9.60;99.90;;;;;;5099626;28;20492;-60
2023/01/11 01:42:17;;;;;;;8.95;5.15;;;9.90;99.90;;;;;;5098173;28;20036;-60
2023/01/11 01:44:55;;;;;;;10.18;5.47;;;8.80;99.90;;;;;;5082058;28;20080;-60
2023/01/11 01:47:26;;;;;;;9.73;5.43;;;9.50;99.90;;;;;;5097426;28;20100;-61
2023/01/11 01:49:51;;;;;;;9.25;5.53;;;9.00;99.90;;;;;;5082159;28;20099;-61
2023/01/11 01:52:17;;;;;;;10.25;5.75;;;8.80;99.90;;;;;;5080149;28;20076;-61
2023/01/11 01:54:46;;;;;;;9.40;5.15;;;9.50;99.90;;;;;;5099365;28;20068;-63
2023/01/11 01:57:19;;;;;;;8.60;5.22;;;9.30;99.90;;;;;;5100233;28;20110;-63
2023/01/11 01:59:50;;;;;;;9.07;4.60;;;9.50;99.90;;;;;;5097390;28;20044;-63
2023/01/11 02:02:19;;;;;;;8.98;4.45;;;10.10;99.90;;;;;;5099957;28;20051;-63
2023/01/11 02:04:47;;;;;;;7.82;3.85;;;9.90;99.90;;;;;;5097474;28;20032;-64
2023/01/11 02:07:14;;;;;;;8.43;4.75;;;10.10;99.90;;;;;;5100261;28;20059;-63
2023/01/11 02:10:01;;;;;;;8.02;4.40;;;10.20;99.90;;;;;;5098972;28;20044;-63
2023/01/11 02:12:30;;;;;;;8.25;4.07;;;10.00;99.90;;;;;;5079196;28;20758;-63
2023/01/11 02:14:59;;;;;;;7.97;3.80;;;9.30;99.90;;;;;;5100398;28;20047;-62
2023/01/11 02:17:25;;;;;;;7.40;3.70;;;10.20;99.90;;;;;;5097255;28;20161;-63
2023/01/11 02:20:21;;;;;;;7.38;3.72;;;10.20;99.90;;;;;;5099948;28;20036;-62
2023/01/11 02:23:00;;;;;;;8.52;3.60;;;9.20;99.90;;;;;;5099154;28;20044;-61
2023/01/11 02:25:48;;;;;;;7.25;3.80;;;10.20;99.90;;;;;;5097035;28;20041;-62
2023/01/11 02:28:33;;;;;;;8.68;4.60;;;9.60;99.90;;;;;;5099916;28;20081;-60
2023/01/11 02:31:20;;;;;;;7.90;4.75;;;9.80;99.90;;;;;;5099679;28;20123;-62
2023/01/11 02:34:10;;;;;;;7.05;4.20;;;10.30;99.90;;;;;;5101388;28;20047;-61
2023/01/11 02:36:53;;;;;;;7.95;4.70;;;9.80;99.90;;;;;;5103824;28;20044;-62
2023/01/11 02:39:29;;;;;;;;;;;9.30;99.90;;;;;;5101760;28;20093;-61
2023/01/11 02:45:14;;;;;;;7.15;4.00;;;9.60;99.90;;;;;;5103356;28;20058;-63
2023/01/11 02:48:08;;;;;;;8.43;4.95;;;10.00;99.90;;;;;;5100670;28;20058;-63
2023/01/11 02:50:46;;;;;;;9.95;5.63;;;9.40;99.90;;;;;;5101936;28;20050;-63
2023/01/11 02:53:33;;;;;;;8.40;4.50;;;9.40;99.90;;;;;;5085090;28;20104;-63
2023/01/11 02:56:04;;;;;;;7.93;4.68;;;9.50;99.90;;;;;;5100050;28;20043;-63
2023/01/11 02:58:35;;;;;;;10.80;5.38;;;9.50;99.90;;;;;;5103152;28;20047;-63
2023/01/11 03:01:01;;;;;;;9.57;5.35;;;9.80;99.90;;;;;;5101616;28;20040;-63
2023/01/11 03:03:26;;;;;;;8.90;5.00;;;9.60;99.90;;;;;;5101567;28;20050;-63
2023/01/11 03:05:59;;;;;;;9.70;4.93;;;9.40;99.90;;;;;;5103087;28;20044;-63
2023/01/11 03:08:43;;;;;;;8.32;4.95;;;10.20;99.90;;;;;;5100226;28;20048;-62
2023/01/11 03:12:50;;;;;;;8.35;5.00;;;9.90;99.90;;;;;;5102988;28;20075;-63
2023/01/11 03:14:09;;;;;;;8.70;5.00;;;10.60;99.90;;;;;;5101861;28;20052;-60
2023/01/11 03:16:45;;;;;;;7.47;4.18;;;10.20;99.90;;;;;;5100690;28;20100;-61
2023/01/11 03:19:38;;;;;;;8.77;4.60;;;10.60;99.90;;;;;;5103015;28;20421;-61
2023/01/11 03:22:31;;;;;;;8.45;4.50;;;10.30;99.90;;;;;;5100239;28;20059;-60
2023/01/11 03:25:07;;;;;;;10.30;5.00;;;9.80;99.90;;;;;;5049279;28;20424;-60
2023/01/11 03:28:05;;;;;;;10.75;5.07;;;10.10;99.90;;;;;;5102789;28;20428;-60
2023/01/11 03:30:33;;;;;;;10.68;5.30;;;10.80;99.90;;;;;;5099854;28;20036;-60
2023/01/11 03:33:02;;;;;;;12.02;6.25;;;10.70;99.90;;;;;;5083944;28;20055;-60
2023/01/11 03:35:44;;;;;;;13.77;6.72;;;9.90;99.90;;;;;;5101796;28;20040;-59
2023/01/11 03:38:21;;;;;;;12.87;7.07;;;10.80;99.90;;;;;;5099820;28;20468;-60
2023/01/11 03:40:54;;;;;;;14.18;7.55;;;10.80;99.90;;;;;;5102364;28;20059;-59
2023/01/11 03:43:22;;;;;;;16.67;7.20;;;10.80;99.90;;;;;;5080961;28;20063;-59
2023/01/11 03:45:59;;;;;;;18.50;7.63;;;10.80;99.90;;;;;;5102101;28;20695;-60
2023/01/11 03:48:46;;;;;;;21.75;7.65;;;10.70;99.90;;;;;;5101523;28;20099;-59
2023/01/11 03:51:16;;;;;;;20.27;8.35;;;9.90;99.90;;;;;;5099298;28;20667;-59
2023/01/11 03:53:45;;;;;;;17.90;7.43;;;9.90;99.90;;;;;;5101776;28;20048;-59
2023/01/11 03:56:14;;;;;;;15.15;7.55;;;10.50;99.90;;;;;;5078801;28;20040;-58
2023/01/11 03:58:40;;;;;;;18.52;8.05;;;10.30;99.90;;;;;;5081493;28;20070;-60
2023/01/11 04:01:06;;;;;;;18.45;7.72;;;9.90;99.90;;;;;;5080500;28;20044;-60
2023/01/11 04:03:32;;;;;;;16.75;8.32;;;10.00;99.90;;;;;;5079783;28;20044;-61
2023/01/11 04:06:00;;;;;;;15.15;7.60;;;9.90;99.90;;;;;;5063517;28;20046;-61
2023/01/11 04:08:26;;;;;;;21.15;8.25;;;10.80;99.90;;;;;;5078751;28;20404;-61
2023/01/11 04:10:52;;;;;;;18.98;7.57;;;10.00;99.90;;;;;;5063518;28;20040;-61
2023/01/11 04:13:18;;;;;;;20.98;7.30;;;10.70;99.90;;;;;;5078277;28;20041;-61
2023/01/11 04:15:44;;;;;;;21.88;6.43;;;9.80;99.90;;;;;;5081332;28;20128;-62
2023/01/11 04:18:09;;;;;;;25.75;5.47;;;10.30;99.90;;;;;;5080174;28;20044;-61
2023/01/11 04:20:39;;;;;;;18.58;4.55;;;9.60;99.90;;;;;;5079844;28;20037;-61
2023/01/11 04:23:06;;;;;;;17.70;3.58;;;10.50;99.90;;;;;;5062858;28;20048;-61
2023/01/11 04:25:32;;;;;;;16.70;2.90;;;9.70;99.90;;;;;;5078410;28;20469;-61
2023/01/11 04:27:58;;;;;;;19.25;3.05;;;10.30;99.90;;;;;;5081187;28;20070;-61
2023/01/11 04:30:24;;;;;;;14.20;3.20;;;9.50;99.90;;;;;;5078224;28;20474;-61
2023/01/11 04:32:50;;;;;;;13.00;2.80;;;9.90;99.90;;;;;;5080963;28;20056;-60
2023/01/11 04:35:16;;;;;;;14.75;2.50;;;10.00;99.90;;;;;;5079587;28;20616;-60
2023/01/11 04:37:42;;;;;;;11.55;2.30;;;9.40;99.90;;;;;;5079706;28;20115;-59
2023/01/11 04:40:08;;;;;;;12.60;2.53;;;9.80;99.90;;;;;;5063064;28;20049;-59
2023/01/11 04:42:34;;;;;;;13.45;2.67;;;9.30;99.90;;;;;;5059635;28;20037;-59
2023/01/11 04:45:00;;;;;;;12.70;2.40;;;9.70;99.90;;;;;;5080843;28;20109;-59
2023/01/11 04:47:25;;;;;;;9.30;2.40;;;9.20;99.90;;;;;;5078023;28;20040;-59
2023/01/11 04:49:51;;;;;;;14.48;2.17;;;9.40;99.90;;;;;;5080671;28;20040;-59
2023/01/11 04:52:19;;;;;;;13.70;2.17;;;9.20;99.90;;;;;;5078840;28;20032;-59
2023/01/11 04:54:46;;;;;;;10.73;2.13;;;9.40;99.90;;;;;;5088232;28;20093;-59
2023/01/11 04:57:13;;;;;;;20.25;2.72;;;9.20;99.90;;;;;;5082679;28;20058;-56
2023/01/11 04:59:39;;;;;;;23.13;2.92;;;9.30;99.90;;;;;;5098454;28;20036;-59
2023/01/11 05:02:05;;;;;;;16.67;3.55;;;9.30;99.90;;;;;;5100975;28;20289;-59
2023/01/11 05:04:30;;;;;;;17.13;2.75;;;9.20;99.90;;;;;;5098079;28;20079;-58
2023/01/11 05:06:56;;;;;;;13.68;2.70;;;9.30;99.90;;;;;;5100826;28;20043;-59
2023/01/11 05:09:22;;;;;;;18.55;3.10;;;9.40;99.90;;;;;;5080537;28;20079;-58
2023/01/11 05:11:47;;;;;;;19.05;2.72;;;9.70;99.90;;;;;;5099700;28;20040;-59
2023/01/11 05:14:16;;;;;;;20.42;4.22;;;9.80;99.90;;;;;;5100467;28;20068;-58
2023/01/11 05:16:42;;;;;;;21.33;3.95;;;9.50;99.90;;;;;;5097866;28;20036;-59
2023/01/11 05:19:10;;;;;;;18.17;3.03;;;9.40;99.90;;;;;;5100893;28;20036;-59
2023/01/11 05:21:38;;;;;;;19.65;3.05;;;9.90;99.90;;;;;;5097934;28;20100;-59
2023/01/11 05:24:05;;;;;;;14.55;2.90;;;9.80;99.90;;;;;;5100188;28;20056;-59
2023/01/11 05:26:33;;;;;;;19.00;3.03;;;9.60;99.90;;;;;;5098831;28;20036;-59
2023/01/11 05:29:01;;;;;;;17.48;2.33;;;9.40;99.90;;;;;;5099475;28;20044;-58
2023/01/11 05:31:27;;;;;;;17.55;3.70;;;9.40;99.90;;;;;;5100574;28;20048;-58
2023/01/11 05:33:55;;;;;;;17.42;3.70;;;9.60;99.90;;;;;;5079894;28;20099;-59
2023/01/11 05:36:23;;;;;;;17.65;2.95;;;9.40;99.90;;;;;;5100612;28;20044;-58
2023/01/11 05:38:50;;;;;;;23.65;3.85;;;9.70;99.90;;;;;;5097379;28;20051;-58
2023/01/11 05:41:18;;;;;;;17.73;3.30;;;9.30;99.90;;;;;;5100695;28;20074;-59
2023/01/11 05:46:30;;;;;;;20.40;3.35;;;9.70;99.90;;;;;;5098349;28;20055;-59
2023/01/11 05:48:57;;;;;;;19.13;3.55;;;9.70;99.90;;;;;;5100023;28;20614;-57
2023/01/11 05:51:29;;;;;;;21.48;3.75;;;9.30;99.90;;;;;;5097380;28;20044;-57
2023/01/11 05:53:56;;;;;;;27.70;3.80;;;9.30;99.90;;;;;;5097697;28;20044;-58
2023/01/11 05:56:21;;;;;;;23.58;3.67;;;9.20;99.90;;;;;;5077815;28;20119;-57
2023/01/11 05:58:51;;;;;;;21.77;3.42;;;9.40;99.90;;;;;;5079525;28;20075;-58
2023/01/11 06:01:18;;;;;;;21.27;4.00;;;9.50;99.90;;;;;;5079954;28;20052;-59
2023/01/11 06:03:45;;;;;;;18.58;4.03;;;9.50;99.90;;;;;;5077334;28;20041;-58
2023/01/11 06:06:11;;;;;;;26.63;4.57;;;9.40;99.90;;;;;;5081592;28;20047;-58
2023/01/11 06:08:36;;;;;;;21.23;3.65;;;9.00;99.90;;;;;;5080985;28;20052;-58
2023/01/11 06:11:02;;;;;;;29.38;4.43;;;9.00;99.90;;;;;;5083996;28;20043;-58
2023/01/11 06:13:28;;;;;;;19.75;3.75;;;9.00;99.90;;;;;;5081015;28;20477;-58
2023/01/11 06:16:06;;;;;;;23.92;3.70;;;9.10;99.90;;;;;;5083157;28;20059;-58
2023/01/11 06:18:34;;;;;;;20.05;3.65;;;8.90;99.90;;;;;;5083443;28;20055;-58
2023/01/11 06:21:00;;;;;;;21.60;3.95;;;8.90;99.90;;;;;;5062691;28;20049;-58
2023/01/11 06:23:27;;;;;;;21.33;3.47;;;8.90;99.90;;;;;;5083323;28;20119;-59
2023/01/11 06:25:53;;;;;;;16.75;3.30;;;9.20;99.90;;;;;;5080604;28;20036;-58
2023/01/11 06:28:19;;;;;;;26.00;3.22;;;9.10;99.90;;;;;;5083145;28;20055;-58
2023/01/11 06:30:54;;;;;;;20.98;3.28;;;9.00;99.90;;;;;;5081223;28;20037;-57
2023/01/11 06:33:21;;;;;;;20.73;3.05;;;9.00;99.90;;;;;;5081830;28;20056;-58
2023/01/11 06:35:47;;;;;;;19.48;3.15;;;9.20;99.90;;;;;;5083430;28;20072;-58
2023/01/11 06:38:14;;;;;;;25.27;4.25;;;9.20;99.90;;;;;;5080418;28;20048;-58
2023/01/11 06:40:40;;;;;;;34.55;5.47;;;9.00;99.90;;;;;;5083427;28;20148;-58
2023/01/11 06:43:07;;;;;;;24.23;3.50;;;9.10;99.90;;;;;;5079618;28;20104;-58
2023/01/11 06:45:34;;;;;;;19.23;3.28;;;9.10;99.90;;;;;;5083106;28;20033;-58
2023/01/11 06:47:59;;;;;;;22.08;3.63;;;9.00;99.90;;;;;;5089564;28;20067;-58
2023/01/11 06:50:25;;;;;;;16.38;2.95;;;9.10;99.90;;;;;;5102014;28;20044;-58
2023/01/11 06:52:58;;;;;;;20.80;4.82;;;9.00;99.90;;;;;;5103233;28;20048;-58
2023/01/11 06:55:26;;;;;;;22.58;5.03;;;9.10;99.90;;;;;;5067422;28;20468;-58
2023/01/11 06:57:51;;;;;;;25.05;4.70;;;9.20;99.90;;;;;;5082946;28;20044;-58
2023/01/11 07:00:18;;;;;;;18.52;3.70;;;9.20;99.90;;;;;;5079667;28;20094;-59
2023/01/11 07:02:47;;;;;;;19.77;3.42;;;9.10;99.90;;;;;;5082854;28;20101;-58
2023/01/11 07:05:14;;;;;;;19.15;3.00;;;9.20;99.90;;;;;;5081307;28;20049;-59
2023/01/11 07:07:40;;;;;;;16.70;2.70;;;9.20;99.90;;;;;;5081211;28;20036;-58
2023/01/11 07:10:08;;;;;;;18.08;3.17;;;9.00;99.90;;;;;;5082397;28;20033;-58
2023/01/11 07:12:35;;;;;;;11.57;2.67;;;9.00;99.90;;;;;;5079380;28;20066;-58
2023/01/11 07:15:01;;;;;;;11.77;2.08;;;9.10;99.90;;;;;;5078565;28;20061;-59
2023/01/11 07:17:27;;;;;;;10.82;2.00;;;9.10;99.90;;;;;;5084485;28;20100;-59
2023/01/11 07:19:52;;;;;;;8.80;1.38;;;9.20;99.90;;;;;;5089476;28;20076;-59
2023/01/11 07:22:21;;;;;;;6.40;2.22;;;9.20;99.90;;;;;;5097451;28;20040;-58
2023/01/11 07:24:47;;;;;;;4.82;1.25;;;9.20;99.90;;;;;;5096956;28;20064;-59
2023/01/11 07:27:13;;;;;;;6.43;1.23;;;9.20;99.90;;;;;;5098336;28;20071;-58
2023/01/11 07:29:38;;;;;;;7.15;1.42;;;9.20;99.90;;;;;;5095777;28;20051;-58
2023/01/11 07:32:04;;;;;;;4.90;1.50;;;9.20;99.90;;;;;;5098618;28;20048;-59
2023/01/11 07:34:30;;;;;;;9.35;1.50;;;9.10;99.90;;;;;;5096007;28;20431;-59
2023/01/11 07:36:56;;;;;;;10.50;1.65;;;9.10;99.90;;;;;;5098467;28;20055;-58
2023/01/11 07:39:21;;;;;;;7.15;1.23;;;9.10;99.90;;;;;;5061143;28;20100;-59
2023/01/11 07:44:31;;;;;;;4.70;1.70;;;9.00;99.90;;;;;;5098367;28;20044;-59
2023/01/11 07:46:57;;;;;;;6.47;1.10;;;9.10;99.90;;;;;;5095525;28;20051;-59
2023/01/11 07:49:22;;;;;;;10.15;1.65;;;8.90;99.90;;;;;;5098445;28;20058;-59
2023/01/11 07:51:50;;;;;;;5.88;2.03;;;8.80;99.90;;;;;;5095025;28;20042;-58
2023/01/11 07:54:16;;;;;;;7.13;1.38;;;8.90;99.90;;;;;;5092122;28;20048;-59
2023/01/11 07:56:42;;;;;;;14.98;2.03;;;8.90;99.90;;;;;;5077076;28;20056;-58
2023/01/11 07:59:08;;;;;;;8.20;1.40;;;8.90;99.90;;;;;;5076126;28;20074;-58
2023/01/11 08:01:34;;;;;;;12.07;2.40;;;8.80;99.90;;;;;;5077578;28;20072;-58
2023/01/11 08:04:00;;;;;;;9.05;1.63;;;8.70;99.90;;;;;;5074949;28;20127;-59
2023/01/11 08:06:25;;;;;;;11.05;2.28;;;9.00;99.90;;;;;;5077986;28;20163;-59
2023/01/11 08:08:51;;;;;;;11.13;2.85;;;8.90;99.90;;;;;;5074615;28;20088;-58
2023/01/11 08:16:45;;;;;;;12.48;1.85;;;8.80;99.90;;;;;;5074956;28;20584;-58
2023/01/11 08:19:11;;;;;;;9.45;1.80;;;8.90;99.90;;;;;;5077466;28;20140;-59
2023/01/11 08:21:37;;;;;;;6.57;1.67;;;8.90;99.90;;;;;;5074493;28;20162;-58
2023/01/11 08:24:02;;;;;;;15.00;2.42;;;8.90;99.90;;;;;;5077049;28;20532;-58
2023/01/11 08:26:28;;;;;;;12.18;2.17;;;8.80;99.90;;;;;;5074920;28;20051;-58
2023/01/11 08:28:54;;;;;;;7.50;1.98;;;8.90;99.90;;;;;;5075753;28;20044;-59
2023/01/11 08:31:20;;;;;;;11.43;3.25;;;8.90;99.90;;;;;;5077001;28;20036;-58
2023/01/11 08:33:47;;;;;;;5.40;1.33;;;8.80;99.90;;;;;;5074863;28;20055;-58
2023/01/11 08:36:13;;;;;;;10.02;2.10;;;8.90;99.90;;;;;;5085830;28;20131;-58
2023/01/11 08:38:39;;;;;;;8.95;1.60;;;8.90;99.90;;;;;;5081938;28;20260;-58
2023/01/11 08:41:09;;;;;;;9.40;1.73;;;8.70;99.90;;;;;;5079176;28;20051;-58
2023/01/11 08:43:39;;;;;;;9.38;2.20;;;8.80;99.90;;;;;;5056273;28;20044;-58
2023/01/11 08:46:06;;;;;;;7.38;1.52;;;8.70;99.90;;;;;;5075842;28;20067;-59
2023/01/11 08:48:32;;;;;;;7.22;1.35;;;8.80;99.90;;;;;;5076928;28;20052;-58
2023/01/11 08:50:58;;;;;;;7.55;2.58;;;8.80;99.90;;;;;;5071966;28;20048;-58
2023/01/11 08:53:24;;;;;;;7.97;1.92;;;8.70;99.90;;;;;;5058683;28;20047;-58
2023/01/11 08:55:50;;;;;;;13.65;2.05;;;8.70;99.90;;;;;;5092140;28;20043;-58
2023/01/11 08:58:16;;;;;;;10.30;2.00;;;8.80;99.90;;;;;;5097453;28;20048;-59
2023/01/11 09:00:42;;;;;;;9.05;1.70;;;8.70;99.90;;;;;;5094739;28;20047;-58
2023/01/11 09:03:10;;;;;;;15.85;2.67;;;8.60;99.90;;;;;;5095290;28;20048;-58
2023/01/11 09:05:37;;;;;;;9.05;1.52;;;8.70;99.90;;;;;;5096906;28;20084;-57
2023/01/11 09:08:03;;;;;;;8.90;1.60;;;8.50;99.90;;;;;;5094061;28;20069;-58
2023/01/11 09:10:29;;;;;;;9.52;2.70;;;8.60;99.90;;;;;;5097231;28;20119;-58
2023/01/11 09:12:56;;;;;;;8.23;2.35;;;8.50;99.90;;;;;;5093775;28;20076;-58
2023/01/11 09:15:23;;;;;;;7.88;2.50;;;8.40;99.90;;;;;;5096136;28;20096;-58
2023/01/11 09:17:49;;;;;;;6.43;1.40;;;8.40;99.90;;;;;;5094773;28;20040;-58
2023/01/11 09:20:16;;;;;;;11.50;1.75;;;8.30;99.90;;;;;;5095592;28;20483;-57
2023/01/11 09:22:51;;;;;;;9.77;1.98;;;8.30;99.90;;;;;;5096341;28;20044;-57
2023/01/11 09:25:18;;;;;;;12.43;1.88;;;8.30;99.90;;;;;;5093632;28;20044;-58
2023/01/11 09:27:49;;;;;;;10.98;2.05;;;8.30;99.90;;;;;;5096094;28;20628;-57
2023/01/11 09:30:17;;;;;;;8.20;1.85;;;8.30;99.90;;;;;;5093069;28;20059;-57
2023/01/11 09:32:44;;;;;;;6.93;1.83;;;8.30;99.90;;;;;;5078011;28;20055;-58
2023/01/11 09:35:10;;;;;;;9.27;1.80;;;8.40;99.90;;;;;;5094733;28;20047;-57
2023/01/11 09:37:40;;;;;;;5.53;1.42;;;8.40;99.90;;;;;;5094195;28;20040;-57
2023/01/11 09:40:11;;;;;;;6.88;2.10;;;8.50;99.90;;;;;;5098148;28;20055;-58
2023/01/11 09:42:42;;;;;;;8.57;2.63;;;8.40;99.90;;;;;;5077369;28;20139;-57
2023/01/11 09:45:13;;;;;;;10.73;1.95;;;8.40;99.90;;;;;;5085146;28;20309;-58
2023/01/11 09:47:43;;;;;;;8.95;1.70;;;8.40;99.90;;;;;;5058788;28;20071;-57
2023/01/11 09:50:21;;;;;;;7.78;2.47;;;8.60;99.90;;;;;;5079164;28;20094;-58
2023/01/11 09:52:52;;;;;;;11.60;1.98;;;8.60;99.90;;;;;;5080204;28;20059;-57
2023/01/11 09:55:24;;;;;;;13.45;2.15;;;8.50;99.90;;;;;;5079456;28;20039;-58
2023/01/11 09:58:08;;;;;;;9.60;1.80;;;8.60;99.90;;;;;;5080323;28;20044;-58
2023/01/11 10:00:47;;;;;;;6.65;1.35;;;8.70;99.90;;;;;;5079113;28;20044;-58
2023/01/11 10:03:38;;;;;;;7.13;1.92;;;8.60;99.90;;;;;;5087085;28;20041;-58
2023/01/11 10:06:19;;;;;;;12.82;1.70;;;8.70;99.90;;;;;;5089700;28;20400;-57
2023/01/11 10:09:03;;;;;;;8.20;1.77;;;8.70;99.90;;;;;;5086875;28;20059;-58
2023/01/11 10:11:48;;;;;;;8.55;1.60;;;8.90;99.90;;;;;;5090220;28;20032;-58
2023/01/11 10:14:34;;;;;;;6.38;1.70;;;8.80;99.90;;;;;;5093130;28;20055;-57
2023/01/11 10:17:00;;;;;;;6.82;1.30;;;8.90;99.90;;;;;;5072194;28;20093;-57
2023/01/11 10:19:38;;;;;;;14.75;2.10;;;8.90;99.90;;;;;;5083498;28;20068;-57
2023/01/11 10:22:31;;;;;;;8.18;1.73;;;8.90;99.90;;;;;;5081055;28;20124;-57
2023/01/11 10:25:15;;;;;;;9.25;1.83;;;8.90;99.90;;;;;;5080864;28;20091;-59
2023/01/11 10:28:00;;;;;;;8.05;1.58;;;8.90;99.90;;;;;;5083061;28;20071;-58
2023/01/11 10:36:40;;;;;;;6.15;2.13;;;9.00;99.90;;;;;;5081227;28;20120;-58
2023/01/11 10:42:22;;;;;;;13.43;1.77;;;9.10;99.90;;;;;;5078879;28;20547;-58
2023/01/11 10:45:10;;;;;;;7.50;1.55;;;9.10;99.90;;;;;;5081731;28;20098;-58
2023/01/11 10:47:47;;;;;;;10.32;2.17;;;9.20;99.90;;;;;;5080567;28;20133;-58
2023/01/11 10:50:26;;;;;;;10.93;2.20;;;9.10;99.90;;;;;;5082079;28;20120;-58
2023/01/11 10:53:20;;;;;;;9.60;2.28;;;9.10;99.90;;;;;;5082403;28;20128;-58
2023/01/11 10:56:01;;;;;;;9.13;1.70;;;9.20;99.90;;;;;;5097549;28;20076;-58
2023/01/11 10:58:48;;;;;;;8.13;1.75;;;9.20;99.90;;;;;;5103329;28;20075;-59
2023/01/11 11:01:27;;;;;;;11.23;2.50;;;9.30;99.90;;;;;;5103191;28;20091;-59
2023/01/11 11:04:30;;;;;;;11.80;1.70;;;9.30;99.90;;;;;;5100147;28;20048;-58
2023/01/11 11:07:04;;;;;;;16.58;2.80;;;9.20;99.90;;;;;;5103201;28;20044;-58
2023/01/11 11:10:13;;;;;;;13.27;2.80;;;9.30;99.90;;;;;;5101867;28;20081;-58
2023/01/11 11:12:53;;;;;;;10.93;1.50;;;9.30;99.90;;;;;;5100050;28;20046;-58
2023/01/11 11:15:40;;;;;;;11.30;2.17;;;9.30;99.90;;;;;;5103039;28;20039;-58
2023/01/11 11:18:06;;;;;;;9.95;1.80;;;9.30;99.90;;;;;;5083733;28;20052;-58
2023/01/11 11:20:33;;;;;;;7.35;1.73;;;9.40;99.90;;;;;;5100850;28;20059;-58
2023/01/11 11:22:59;;;;;;;12.13;2.75;;;9.40;99.90;;;;;;5102672;28;20044;-58
2023/01/11 11:25:36;;;;;;;15.82;3.47;;;9.40;99.90;;;;;;5099918;28;20464;-58
2023/01/11 11:28:04;;;;;;;10.88;3.15;;;9.40;99.90;;;;;;5102563;28;20048;-58
2023/01/11 11:30:42;;;;;;;9.45;1.73;;;9.30;99.90;;;;;;5100147;28;20100;-57
2023/01/11 11:33:38;;;;;;;12.82;3.17;;;9.30;99.90;;;;;;5101268;28;20054;-58
2023/01/11 11:36:09;;;;;;;13.82;2.28;;;9.40;99.90;;;;;;5102569;28;20054;-58
2023/01/11 11:38:41;;;;;;;8.00;2.03;;;9.40;99.90;;;;;;5099345;28;20081;-57
2023/01/11 11:41:15;;;;;;;10.45;2.30;;;9.50;99.90;;;;;;5102123;28;20051;-57
2023/01/11 11:43:44;;;;;;;17.02;2.40;;;9.50;99.90;;;;;;5100601;28;20715;-58
2023/01/11 11:46:12;;;;;;;10.38;2.15;;;9.60;99.90;;;;;;5100691;28;20051;-58
2023/01/11 11:48:38;;;;;;;8.82;2.17;;;9.40;99.90;;;;;;5102393;28;20081;-58
2023/01/11 11:51:09;;;;;;;13.93;2.17;;;9.50;99.90;;;;;;5099502;28;20036;-58
2023/01/11 11:53:43;;;;;;;11.63;2.67;;;9.60;99.90;;;;;;5101838;28;20052;-58
2023/01/11 11:56:19;;;;;;;13.05;2.10;;;9.60;99.90;;;;;;5079241;28;20043;-57
2023/01/11 11:58:46;;;;;;;11.45;2.65;;;9.70;99.90;;;;;;5080660;28;20076;-58
2023/01/11 12:01:36;;;;;;;13.30;2.53;;;9.70;99.90;;;;;;5081640;28;20045;-58
2023/01/11 12:04:22;;;;;;;18.67;2.60;;;9.70;99.90;;;;;;5086645;28;20039;-58
2023/01/11 12:07:16;;;;;;;12.77;2.13;;;9.60;99.90;;;;;;5101798;28;20052;-58
2023/01/11 12:10:08;;;;;;;13.60;2.97;;;9.50;99.90;;;;;;5091373;28;20101;-58
2023/01/11 12:12:47;;;;;;;11.18;2.25;;;9.50;99.90;;;;;;5098502;28;20040;-58
2023/01/11 12:15:20;;;;;;;8.90;2.30;;;9.50;99.90;;;;;;5101752;28;20264;-58
2023/01/11 12:17:47;;;;;;;13.63;2.60;;;9.50;99.90;;;;;;5100093;28;20432;-57
2023/01/11 12:20:21;;;;;;;13.63;2.55;;;9.50;99.90;;;;;;5100719;28;20036;-58
2023/01/11 12:23:26;;;;;;;12.07;2.28;;;9.50;99.90;;;;;;5101269;28;20075;-56
2023/01/11 12:26:19;;;;;;;13.30;2.75;;;9.50;99.90;;;;;;5078199;28;20078;-59
2023/01/11 12:29:05;;;;;;;15.20;2.65;;;9.40;99.90;;;;;;5080242;28;20082;-58
2023/01/11 12:31:39;;;;;;;16.17;2.38;;;9.40;99.90;;;;;;5081296;28;20040;-58
2023/01/11 12:34:35;;;;;;;15.88;2.63;;;9.40;99.90;;;;;;5060294;28;20094;-58
2023/01/11 12:37:12;;;;;;;15.18;2.15;;;9.40;99.90;;;;;;5081085;28;20165;-57
2023/01/11 12:39:48;;;;;;;16.27;3.20;;;9.40;99.90;;;;;;5080498;28;20041;-57
2023/01/11 12:42:32;;;;;;;9.95;3.00;;;9.40;99.90;;;;;;5077992;28;20705;-58
2023/01/11 12:45:22;;;;;;;11.65;2.20;;;9.40;99.90;;;;;;5080866;28;20040;-58
2023/01/11 12:48:04;;;;;;;10.20;2.42;;;9.30;99.90;;;;;;5079100;28;20078;-58
2023/01/11 12:50:48;;;;;;;9.65;2.55;;;9.30;99.90;;;;;;5078867;28;20504;-58
2023/01/11 12:53:38;;;;;;;15.35;3.47;;;9.50;99.90;;;;;;5081021;28;20067;-58
2023/01/11 12:56:34;;;;;;;14.88;2.20;;;9.40;99.90;;;;;;5078144;28;20048;-58
2023/01/11 12:59:16;;;;;;;14.38;2.72;;;9.50;99.90;;;;;;5060966;28;20044;-58
2023/01/11 13:01:51;;;;;;;11.02;2.20;;;9.50;99.90;;;;;;5080886;28;20051;-58
2023/01/11 13:04:39;;;;;;;14.82;2.95;;;9.50;99.90;;;;;;5077735;28;20123;-58
2023/01/11 13:07:46;;;;;;;8.02;2.10;;;9.50;99.90;;;;;;5080432;28;20079;-58
2023/01/11 13:10:48;;;;;;;12.82;2.20;;;9.60;99.90;;;;;;5080804;28;20068;-58
2023/01/11 13:13:25;;;;;;;10.48;2.30;;;9.50;99.90;;;;;;5077841;28;20055;-58
2023/01/11 13:16:13;;;;;;;10.60;2.00;;;9.60;99.90;;;;;;5079348;28;20041;-59
2023/01/11 13:18:41;;;;;;;19.30;2.58;;;9.70;99.90;;;;;;5062664;28;20070;-59
2023/01/11 13:21:19;;;;;;;14.52;2.72;;;9.70;99.90;;;;;;5077347;28;20067;-58
2023/01/11 13:23:49;;;;;;;15.63;2.17;;;9.50;99.90;;;;;;5045787;28;20057;-58
2023/01/11 13:26:28;;;;;;;16.48;2.80;;;9.50;99.90;;;;;;5077658;28;21365;-58
2023/01/11 13:29:09;;;;;;;13.13;1.77;;;9.40;99.90;;;;;;5078984;28;20049;-58
2023/01/11 13:31:36;;;;;;;22.42;3.75;;;9.40;99.90;;;;;;5080374;28;20041;-58
2023/01/11 13:34:17;;;;;;;10.98;2.22;;;9.40;99.90;;;;;;5077725;28;20069;-58
2023/01/11 13:36:50;;;;;;;11.10;2.40;;;9.30;99.90;;;;;;5080557;28;20068;-59
2023/01/11 13:39:27;;;;;;;11.25;2.00;;;9.30;99.90;;;;;;5060839;28;20060;-58
2023/01/11 13:41:56;;;;;;;15.95;3.42;;;9.40;99.90;;;;;;5078312;28;20052;-59
2023/01/11 13:44:45;;;;;;;19.17;2.67;;;9.40;99.90;;;;;;5080291;28;20045;-58